sensor_id;sensor_type;location;lat;lon;timestamp;P1;durP1;ratioP1;P2;durP2;ratioP2
2434;SDS011;1228;51.022;6.764;2022-08-19T00:01:50;13.50;;;12.10;;
2434;SDS011;1228;51.022;6.764;2022-08-19T00:04:18;13.40;;;12.10;;
2434;SDS011;1228;51.022;6.764;2022-08-19T00:06:45;15.47;;;12.93;;
2434;SDS011;1228;51.022;6.764;2022-08-19T00:09:12;15.17;;;12.90;;
2434;SDS011;1228;51.022;6.764;2022-08-19T00:11:41;14.60;;;12.83;;
2434;SDS011;1228;51.022;6.764;2022-08-19T00:14:09;17.77;;;13.43;;
2434;SDS011;1228;51.022;6.764;2022-08-19T00:16:39;14.77;;;13.20;;
2434;SDS011;1228;51.022;6.764;2022-08-19T00:19:06;15.57;;;13.97;;
2434;SDS011;1228;51.022;6.764;2022-08-19T00:21:33;15.00;;;13.40;;
2434;SDS011;1228;51.022;6.764;2022-08-19T00:24:03;20.47;;;14.13;;
2434;SDS011;1228;51.022;6.764;2022-08-19T00:26:28;14.57;;;13.07;;
2434;SDS011;1228;51.022;6.764;2022-08-19T00:28:54;14.57;;;13.07;;
2434;SDS011;1228;51.022;6.764;2022-08-19T00:31:20;16.27;;;14.00;;
2434;SDS011;1228;51.022;6.764;2022-08-19T00:33:46;15.80;;;14.20;;
2434;SDS011;1228;51.022;6.764;2022-08-19T00:36:15;17.00;;;14.37;;
2434;SDS011;1228;51.022;6.764;2022-08-19T00:38:42;15.03;;;13.50;;
2434;SDS011;1228;51.022;6.764;2022-08-19T00:41:08;15.23;;;13.73;;
2434;SDS011;1228;51.022;6.764;2022-08-19T00:43:38;16.10;;;14.40;;
2434;SDS011;1228;51.022;6.764;2022-08-19T00:46:05;17.47;;;14.60;;
2434;SDS011;1228;51.022;6.764;2022-08-19T00:48:31;16.23;;;13.37;;
2434;SDS011;1228;51.022;6.764;2022-08-19T00:50:58;15.10;;;13.70;;
2434;SDS011;1228;51.022;6.764;2022-08-19T00:53:26;16.77;;;15.00;;
2434;SDS011;1228;51.022;6.764;2022-08-19T00:55:56;15.37;;;13.63;;
2434;SDS011;1228;51.022;6.764;2022-08-19T00:58:25;20.30;;;13.83;;
2434;SDS011;1228;51.022;6.764;2022-08-19T01:00:54;17.67;;;13.50;;
2434;SDS011;1228;51.022;6.764;2022-08-19T01:03:20;13.93;;;12.53;;
2434;SDS011;1228;51.022;6.764;2022-08-19T01:05:49;16.90;;;13.50;;
2434;SDS011;1228;51.022;6.764;2022-08-19T01:08:16;15.80;;;14.13;;
2434;SDS011;1228;51.022;6.764;2022-08-19T01:10:45;16.37;;;14.00;;
2434;SDS011;1228;51.022;6.764;2022-08-19T01:13:23;16.00;;;13.40;;
2434;SDS011;1228;51.022;6.764;2022-08-19T01:16:00;14.93;;;13.53;;
2434;SDS011;1228;51.022;6.764;2022-08-19T01:18:28;16.50;;;13.93;;
2434;SDS011;1228;51.022;6.764;2022-08-19T01:20:56;14.90;;;13.37;;
2434;SDS011;1228;51.022;6.764;2022-08-19T01:23:26;15.63;;;14.00;;
2434;SDS011;1228;51.022;6.764;2022-08-19T01:26:07;20.73;;;14.17;;
2434;SDS011;1228;51.022;6.764;2022-08-19T01:28:39;17.87;;;15.73;;
2434;SDS011;1228;51.022;6.764;2022-08-19T01:31:10;24.70;;;15.80;;
2434;SDS011;1228;51.022;6.764;2022-08-19T01:33:39;25.23;;;15.83;;
2434;SDS011;1228;51.022;6.764;2022-08-19T01:36:09;22.07;;;15.23;;
2434;SDS011;1228;51.022;6.764;2022-08-19T01:38:38;23.07;;;16.93;;
2434;SDS011;1228;51.022;6.764;2022-08-19T01:41:07;18.37;;;16.47;;
2434;SDS011;1228;51.022;6.764;2022-08-19T01:43:33;18.57;;;16.53;;
2434;SDS011;1228;51.022;6.764;2022-08-19T01:45:59;22.87;;;17.90;;
2434;SDS011;1228;51.022;6.764;2022-08-19T01:48:25;23.70;;;17.67;;
2434;SDS011;1228;51.022;6.764;2022-08-19T01:50:51;20.67;;;18.53;;
2434;SDS011;1228;51.022;6.764;2022-08-19T01:53:17;25.20;;;19.53;;
2434;SDS011;1228;51.022;6.764;2022-08-19T01:55:42;23.00;;;19.27;;
2434;SDS011;1228;51.022;6.764;2022-08-19T01:58:11;21.67;;;19.40;;
2434;SDS011;1228;51.022;6.764;2022-08-19T02:00:40;23.57;;;21.07;;
2434;SDS011;1228;51.022;6.764;2022-08-19T02:03:06;24.03;;;21.43;;
2434;SDS011;1228;51.022;6.764;2022-08-19T02:05:31;24.80;;;20.67;;
2434;SDS011;1228;51.022;6.764;2022-08-19T02:07:57;24.03;;;20.73;;
2434;SDS011;1228;51.022;6.764;2022-08-19T02:10:23;25.67;;;21.30;;
2434;SDS011;1228;51.022;6.764;2022-08-19T02:12:50;30.10;;;23.40;;
2434;SDS011;1228;51.022;6.764;2022-08-19T02:15:16;26.10;;;22.57;;
2434;SDS011;1228;51.022;6.764;2022-08-19T02:17:47;29.10;;;21.90;;
2434;SDS011;1228;51.022;6.764;2022-08-19T02:20:12;26.37;;;23.57;;
2434;SDS011;1228;51.022;6.764;2022-08-19T02:22:39;27.73;;;23.27;;
2434;SDS011;1228;51.022;6.764;2022-08-19T02:25:07;27.47;;;23.83;;
2434;SDS011;1228;51.022;6.764;2022-08-19T02:27:34;28.30;;;24.70;;
2434;SDS011;1228;51.022;6.764;2022-08-19T02:30:00;27.93;;;23.77;;
2434;SDS011;1228;51.022;6.764;2022-08-19T02:32:26;30.50;;;26.37;;
2434;SDS011;1228;51.022;6.764;2022-08-19T02:34:52;32.93;;;25.83;;
2434;SDS011;1228;51.022;6.764;2022-08-19T02:37:18;29.57;;;26.37;;
2434;SDS011;1228;51.022;6.764;2022-08-19T02:40:02;33.57;;;25.60;;
2434;SDS011;1228;51.022;6.764;2022-08-19T02:42:28;32.50;;;25.20;;
2434;SDS011;1228;51.022;6.764;2022-08-19T02:44:55;32.53;;;25.83;;
2434;SDS011;1228;51.022;6.764;2022-08-19T02:47:21;32.27;;;25.67;;
2434;SDS011;1228;51.022;6.764;2022-08-19T02:49:47;30.03;;;25.90;;
2434;SDS011;1228;51.022;6.764;2022-08-19T02:52:14;32.63;;;27.20;;
2434;SDS011;1228;51.022;6.764;2022-08-19T02:54:40;35.27;;;28.83;;
2434;SDS011;1228;51.022;6.764;2022-08-19T02:57:06;35.77;;;27.10;;
2434;SDS011;1228;51.022;6.764;2022-08-19T02:59:32;34.13;;;27.73;;
2434;SDS011;1228;51.022;6.764;2022-08-19T03:01:58;39.87;;;29.27;;
2434;SDS011;1228;51.022;6.764;2022-08-19T03:04:23;41.20;;;31.03;;
2434;SDS011;1228;51.022;6.764;2022-08-19T03:06:49;34.50;;;29.37;;
2434;SDS011;1228;51.022;6.764;2022-08-19T03:09:16;35.53;;;29.87;;
2434;SDS011;1228;51.022;6.764;2022-08-19T03:11:43;35.87;;;29.37;;
2434;SDS011;1228;51.022;6.764;2022-08-19T03:14:09;40.03;;;29.47;;
2434;SDS011;1228;51.022;6.764;2022-08-19T03:16:40;35.67;;;29.53;;
2434;SDS011;1228;51.022;6.764;2022-08-19T03:19:08;42.83;;;32.47;;
2434;SDS011;1228;51.022;6.764;2022-08-19T03:21:34;42.17;;;32.93;;
2434;SDS011;1228;51.022;6.764;2022-08-19T03:24:01;44.53;;;31.77;;
2434;SDS011;1228;51.022;6.764;2022-08-19T03:26:28;40.63;;;34.07;;
2434;SDS011;1228;51.022;6.764;2022-08-19T03:28:55;40.80;;;33.73;;
2434;SDS011;1228;51.022;6.764;2022-08-19T03:31:21;44.80;;;34.67;;
2434;SDS011;1228;51.022;6.764;2022-08-19T03:33:48;44.83;;;33.67;;
2434;SDS011;1228;51.022;6.764;2022-08-19T03:36:19;42.13;;;33.93;;
2434;SDS011;1228;51.022;6.764;2022-08-19T03:38:51;42.77;;;33.97;;
2434;SDS011;1228;51.022;6.764;2022-08-19T03:41:29;42.33;;;33.70;;
2434;SDS011;1228;51.022;6.764;2022-08-19T03:43:56;44.20;;;35.33;;
2434;SDS011;1228;51.022;6.764;2022-08-19T03:46:25;45.93;;;35.67;;
2434;SDS011;1228;51.022;6.764;2022-08-19T03:48:56;47.17;;;36.20;;
2434;SDS011;1228;51.022;6.764;2022-08-19T03:51:30;49.47;;;38.13;;
2434;SDS011;1228;51.022;6.764;2022-08-19T03:53:59;46.13;;;36.07;;
2434;SDS011;1228;51.022;6.764;2022-08-19T03:56:26;46.27;;;35.97;;
2434;SDS011;1228;51.022;6.764;2022-08-19T03:58:53;48.60;;;35.70;;
2434;SDS011;1228;51.022;6.764;2022-08-19T04:01:21;44.97;;;35.63;;
2434;SDS011;1228;51.022;6.764;2022-08-19T04:03:48;48.53;;;37.17;;
2434;SDS011;1228;51.022;6.764;2022-08-19T04:06:47;52.90;;;37.63;;
2434;SDS011;1228;51.022;6.764;2022-08-19T04:09:08;48.07;;;38.47;;
2434;SDS011;1228;51.022;6.764;2022-08-19T04:11:40;49.13;;;37.23;;
2434;SDS011;1228;51.022;6.764;2022-08-19T04:14:07;53.43;;;38.63;;
2434;SDS011;1228;51.022;6.764;2022-08-19T04:16:37;51.07;;;37.37;;
2434;SDS011;1228;51.022;6.764;2022-08-19T04:19:04;61.10;;;39.50;;
2434;SDS011;1228;51.022;6.764;2022-08-19T04:21:30;51.20;;;38.93;;
2434;SDS011;1228;51.022;6.764;2022-08-19T04:23:56;61.93;;;41.40;;
2434;SDS011;1228;51.022;6.764;2022-08-19T04:26:24;52.23;;;38.57;;
2434;SDS011;1228;51.022;6.764;2022-08-19T04:28:51;56.43;;;38.53;;
2434;SDS011;1228;51.022;6.764;2022-08-19T04:31:21;56.10;;;38.13;;
2434;SDS011;1228;51.022;6.764;2022-08-19T04:33:51;57.53;;;37.73;;
2434;SDS011;1228;51.022;6.764;2022-08-19T04:36:25;54.20;;;39.00;;
2434;SDS011;1228;51.022;6.764;2022-08-19T04:38:58;59.33;;;40.47;;
2434;SDS011;1228;51.022;6.764;2022-08-19T04:41:26;55.13;;;38.93;;
2434;SDS011;1228;51.022;6.764;2022-08-19T04:44:11;62.33;;;41.47;;
2434;SDS011;1228;51.022;6.764;2022-08-19T04:46:37;69.03;;;40.37;;
2434;SDS011;1228;51.022;6.764;2022-08-19T04:49:04;62.23;;;43.00;;
2434;SDS011;1228;51.022;6.764;2022-08-19T04:51:31;57.67;;;42.63;;
2434;SDS011;1228;51.022;6.764;2022-08-19T04:53:58;60.97;;;42.80;;
2434;SDS011;1228;51.022;6.764;2022-08-19T04:56:25;63.90;;;43.57;;
2434;SDS011;1228;51.022;6.764;2022-08-19T04:58:52;60.83;;;41.87;;
2434;SDS011;1228;51.022;6.764;2022-08-19T05:01:25;64.00;;;42.30;;
2434;SDS011;1228;51.022;6.764;2022-08-19T05:03:53;67.53;;;43.20;;
2434;SDS011;1228;51.022;6.764;2022-08-19T05:06:20;63.40;;;41.33;;
2434;SDS011;1228;51.022;6.764;2022-08-19T05:08:46;63.57;;;42.87;;
2434;SDS011;1228;51.022;6.764;2022-08-19T05:11:19;54.93;;;40.73;;
2434;SDS011;1228;51.022;6.764;2022-08-19T05:13:49;59.67;;;41.13;;
2434;SDS011;1228;51.022;6.764;2022-08-19T05:16:16;59.73;;;39.63;;
2434;SDS011;1228;51.022;6.764;2022-08-19T05:18:44;57.43;;;40.13;;
2434;SDS011;1228;51.022;6.764;2022-08-19T05:21:28;50.60;;;37.30;;
2434;SDS011;1228;51.022;6.764;2022-08-19T05:24:13;58.67;;;40.77;;
2434;SDS011;1228;51.022;6.764;2022-08-19T05:26:41;48.93;;;37.87;;
2434;SDS011;1228;51.022;6.764;2022-08-19T05:29:13;53.27;;;36.03;;
2434;SDS011;1228;51.022;6.764;2022-08-19T05:31:40;52.87;;;37.77;;
2434;SDS011;1228;51.022;6.764;2022-08-19T05:34:06;50.20;;;37.43;;
2434;SDS011;1228;51.022;6.764;2022-08-19T05:36:37;47.00;;;34.60;;
2434;SDS011;1228;51.022;6.764;2022-08-19T05:39:05;43.07;;;34.20;;
2434;SDS011;1228;51.022;6.764;2022-08-19T05:41:36;45.40;;;33.60;;
2434;SDS011;1228;51.022;6.764;2022-08-19T05:44:06;42.73;;;32.00;;
2434;SDS011;1228;51.022;6.764;2022-08-19T05:46:34;41.97;;;31.07;;
2434;SDS011;1228;51.022;6.764;2022-08-19T05:49:00;40.07;;;32.67;;
2434;SDS011;1228;51.022;6.764;2022-08-19T05:51:26;39.90;;;31.10;;
2434;SDS011;1228;51.022;6.764;2022-08-19T05:53:51;41.80;;;33.00;;
2434;SDS011;1228;51.022;6.764;2022-08-19T05:56:17;41.10;;;30.60;;
2434;SDS011;1228;51.022;6.764;2022-08-19T05:58:44;34.47;;;28.00;;
2434;SDS011;1228;51.022;6.764;2022-08-19T06:01:14;35.17;;;29.97;;
2434;SDS011;1228;51.022;6.764;2022-08-19T06:03:41;32.70;;;28.13;;
2434;SDS011;1228;51.022;6.764;2022-08-19T06:06:07;38.50;;;31.40;;
2434;SDS011;1228;51.022;6.764;2022-08-19T06:08:35;35.30;;;27.77;;
2434;SDS011;1228;51.022;6.764;2022-08-19T06:13:41;36.60;;;29.67;;
2434;SDS011;1228;51.022;6.764;2022-08-19T06:16:08;36.43;;;30.00;;
2434;SDS011;1228;51.022;6.764;2022-08-19T06:18:33;37.90;;;30.87;;
2434;SDS011;1228;51.022;6.764;2022-08-19T06:20:59;36.40;;;29.80;;
2434;SDS011;1228;51.022;6.764;2022-08-19T06:23:28;36.77;;;29.87;;
2434;SDS011;1228;51.022;6.764;2022-08-19T06:25:54;34.17;;;29.67;;
2434;SDS011;1228;51.022;6.764;2022-08-19T06:28:19;34.50;;;27.87;;
2434;SDS011;1228;51.022;6.764;2022-08-19T06:30:45;36.07;;;28.23;;
2434;SDS011;1228;51.022;6.764;2022-08-19T06:33:11;35.57;;;28.43;;
2434;SDS011;1228;51.022;6.764;2022-08-19T06:35:40;36.20;;;29.80;;
2434;SDS011;1228;51.022;6.764;2022-08-19T06:38:06;34.67;;;28.43;;
2434;SDS011;1228;51.022;6.764;2022-08-19T06:40:32;34.00;;;29.33;;
2434;SDS011;1228;51.022;6.764;2022-08-19T06:42:57;36.10;;;28.77;;
2434;SDS011;1228;51.022;6.764;2022-08-19T06:45:24;34.07;;;27.90;;
2434;SDS011;1228;51.022;6.764;2022-08-19T06:47:51;37.13;;;29.13;;
2434;SDS011;1228;51.022;6.764;2022-08-19T06:50:20;42.47;;;30.27;;
2434;SDS011;1228;51.022;6.764;2022-08-19T06:52:49;36.87;;;29.80;;
2434;SDS011;1228;51.022;6.764;2022-08-19T06:55:14;36.20;;;29.70;;
2434;SDS011;1228;51.022;6.764;2022-08-19T06:57:40;39.33;;;29.80;;
2434;SDS011;1228;51.022;6.764;2022-08-19T07:00:07;40.37;;;30.07;;
2434;SDS011;1228;51.022;6.764;2022-08-19T07:02:39;44.13;;;31.23;;
2434;SDS011;1228;51.022;6.764;2022-08-19T07:05:06;47.07;;;36.23;;
2434;SDS011;1228;51.022;6.764;2022-08-19T07:07:32;47.30;;;35.70;;
2434;SDS011;1228;51.022;6.764;2022-08-19T07:09:57;48.57;;;33.50;;
2434;SDS011;1228;51.022;6.764;2022-08-19T07:12:23;48.17;;;35.50;;
2434;SDS011;1228;51.022;6.764;2022-08-19T07:14:49;47.47;;;36.60;;
2434;SDS011;1228;51.022;6.764;2022-08-19T07:17:15;51.37;;;35.80;;
2434;SDS011;1228;51.022;6.764;2022-08-19T07:19:40;45.87;;;35.03;;
2434;SDS011;1228;51.022;6.764;2022-08-19T07:22:08;53.83;;;36.27;;
2434;SDS011;1228;51.022;6.764;2022-08-19T07:24:34;44.60;;;33.27;;
2434;SDS011;1228;51.022;6.764;2022-08-19T07:27:02;46.67;;;36.73;;
2434;SDS011;1228;51.022;6.764;2022-08-19T07:29:31;53.90;;;36.10;;
2434;SDS011;1228;51.022;6.764;2022-08-19T07:31:58;44.90;;;34.17;;
2434;SDS011;1228;51.022;6.764;2022-08-19T07:34:26;48.50;;;35.03;;
2434;SDS011;1228;51.022;6.764;2022-08-19T07:36:53;48.50;;;34.17;;
2434;SDS011;1228;51.022;6.764;2022-08-19T07:39:21;43.03;;;32.77;;
2434;SDS011;1228;51.022;6.764;2022-08-19T07:41:48;47.53;;;35.03;;
2434;SDS011;1228;51.022;6.764;2022-08-19T07:44:15;50.43;;;35.90;;
2434;SDS011;1228;51.022;6.764;2022-08-19T07:46:44;47.97;;;36.50;;
2434;SDS011;1228;51.022;6.764;2022-08-19T07:49:11;55.27;;;38.77;;
2434;SDS011;1228;51.022;6.764;2022-08-19T07:51:43;51.80;;;36.80;;
2434;SDS011;1228;51.022;6.764;2022-08-19T07:54:17;54.83;;;37.73;;
2434;SDS011;1228;51.022;6.764;2022-08-19T07:56:44;53.20;;;39.70;;
2434;SDS011;1228;51.022;6.764;2022-08-19T07:59:10;49.97;;;34.67;;
2434;SDS011;1228;51.022;6.764;2022-08-19T08:01:36;51.83;;;38.05;;
2434;SDS011;1228;51.022;6.764;2022-08-19T08:04:04;52.47;;;34.03;;
2434;SDS011;1228;51.022;6.764;2022-08-19T08:06:50;52.63;;;36.33;;
2434;SDS011;1228;51.022;6.764;2022-08-19T08:09:37;42.45;;;32.85;;
2434;SDS011;1228;51.022;6.764;2022-08-19T08:14:38;44.80;;;32.17;;
2434;SDS011;1228;51.022;6.764;2022-08-19T08:17:07;45.05;;;31.70;;
2434;SDS011;1228;51.022;6.764;2022-08-19T08:19:33;43.47;;;31.50;;
2434;SDS011;1228;51.022;6.764;2022-08-19T08:22:00;41.63;;;29.15;;
2434;SDS011;1228;51.022;6.764;2022-08-19T08:24:27;42.97;;;30.35;;
2434;SDS011;1228;51.022;6.764;2022-08-19T08:26:56;48.28;;;31.48;;
2434;SDS011;1228;51.022;6.764;2022-08-19T08:29:23;42.38;;;29.55;;
2434;SDS011;1228;51.022;6.764;2022-08-19T08:31:50;47.53;;;31.08;;
2434;SDS011;1228;51.022;6.764;2022-08-19T08:34:16;38.75;;;26.95;;
2434;SDS011;1228;51.022;6.764;2022-08-19T08:36:43;40.95;;;27.83;;
2434;SDS011;1228;51.022;6.764;2022-08-19T08:39:11;37.78;;;28.75;;
2434;SDS011;1228;51.022;6.764;2022-08-19T08:44:43;38.25;;;27.50;;
2434;SDS011;1228;51.022;6.764;2022-08-19T08:47:22;41.35;;;27.90;;
2434;SDS011;1228;51.022;6.764;2022-08-19T08:49:59;37.45;;;25.58;;
2434;SDS011;1228;51.022;6.764;2022-08-19T08:52:47;34.92;;;24.63;;
2434;SDS011;1228;51.022;6.764;2022-08-19T08:55:19;30.33;;;22.35;;
2434;SDS011;1228;51.022;6.764;2022-08-19T09:00:15;30.15;;;22.70;;
2434;SDS011;1228;51.022;6.764;2022-08-19T09:02:59;30.60;;;20.30;;
2434;SDS011;1228;51.022;6.764;2022-08-19T09:05:32;26.00;;;21.02;;
2434;SDS011;1228;51.022;6.764;2022-08-19T09:10:56;25.08;;;20.40;;
2434;SDS011;1228;51.022;6.764;2022-08-19T09:16:16;24.23;;;18.85;;
2434;SDS011;1228;51.022;6.764;2022-08-19T09:18:46;23.55;;;17.88;;
2434;SDS011;1228;51.022;6.764;2022-08-19T09:21:17;22.25;;;18.50;;
2434;SDS011;1228;51.022;6.764;2022-08-19T09:23:43;24.23;;;17.48;;
2434;SDS011;1228;51.022;6.764;2022-08-19T09:26:10;25.58;;;19.85;;
2434;SDS011;1228;51.022;6.764;2022-08-19T09:28:39;20.45;;;16.17;;
2434;SDS011;1228;51.022;6.764;2022-08-19T09:31:12;20.67;;;16.17;;
2434;SDS011;1228;51.022;6.764;2022-08-19T09:33:39;18.27;;;15.88;;
2434;SDS011;1228;51.022;6.764;2022-08-19T09:36:09;18.05;;;15.75;;
2434;SDS011;1228;51.022;6.764;2022-08-19T09:38:37;18.52;;;13.63;;
2434;SDS011;1228;51.022;6.764;2022-08-19T09:41:07;17.20;;;14.60;;
2434;SDS011;1228;51.022;6.764;2022-08-19T09:43:38;13.60;;;12.30;;
2434;SDS011;1228;51.022;6.764;2022-08-19T09:46:05;17.83;;;15.00;;
2434;SDS011;1228;51.022;6.764;2022-08-19T09:48:34;16.52;;;13.32;;
2434;SDS011;1228;51.022;6.764;2022-08-19T09:51:04;14.77;;;12.82;;
2434;SDS011;1228;51.022;6.764;2022-08-19T09:53:33;14.85;;;13.25;;
2434;SDS011;1228;51.022;6.764;2022-08-19T09:56:00;15.23;;;12.57;;
2434;SDS011;1228;51.022;6.764;2022-08-19T09:58:26;15.18;;;12.93;;
2434;SDS011;1228;51.022;6.764;2022-08-19T10:00:56;14.75;;;12.15;;
2434;SDS011;1228;51.022;6.764;2022-08-19T10:03:23;13.63;;;11.98;;
2434;SDS011;1228;51.022;6.764;2022-08-19T10:05:49;17.83;;;13.35;;
2434;SDS011;1228;51.022;6.764;2022-08-19T10:08:16;15.45;;;13.68;;
2434;SDS011;1228;51.022;6.764;2022-08-19T10:10:50;14.98;;;12.90;;
2434;SDS011;1228;51.022;6.764;2022-08-19T10:13:17;15.80;;;12.73;;
2434;SDS011;1228;51.022;6.764;2022-08-19T10:15:48;17.73;;;14.50;;
2434;SDS011;1228;51.022;6.764;2022-08-19T10:18:16;15.20;;;13.70;;
2434;SDS011;1228;51.022;6.764;2022-08-19T10:20:43;15.27;;;13.50;;
2434;SDS011;1228;51.022;6.764;2022-08-19T10:23:10;20.92;;;13.90;;
2434;SDS011;1228;51.022;6.764;2022-08-19T10:25:37;17.30;;;15.43;;
2434;SDS011;1228;51.022;6.764;2022-08-19T10:28:03;19.75;;;15.60;;
2434;SDS011;1228;51.022;6.764;2022-08-19T10:30:29;15.57;;;13.93;;
2434;SDS011;1228;51.022;6.764;2022-08-19T10:32:54;15.30;;;13.68;;
2434;SDS011;1228;51.022;6.764;2022-08-19T10:35:20;15.95;;;13.38;;
2434;SDS011;1228;51.022;6.764;2022-08-19T10:37:46;18.73;;;14.27;;
2434;SDS011;1228;51.022;6.764;2022-08-19T10:40:11;14.00;;;12.25;;
2434;SDS011;1228;51.022;6.764;2022-08-19T10:42:37;15.60;;;13.45;;
2434;SDS011;1228;51.022;6.764;2022-08-19T10:45:03;16.85;;;15.27;;
2434;SDS011;1228;51.022;6.764;2022-08-19T10:47:31;17.83;;;14.65;;
2434;SDS011;1228;51.022;6.764;2022-08-19T10:49:58;12.95;;;11.65;;
2434;SDS011;1228;51.022;6.764;2022-08-19T10:52:43;15.80;;;12.07;;
2434;SDS011;1228;51.022;6.764;2022-08-19T10:55:11;14.77;;;12.77;;
2434;SDS011;1228;51.022;6.764;2022-08-19T10:57:55;15.40;;;12.02;;
2434;SDS011;1228;51.022;6.764;2022-08-19T11:00:22;12.75;;;10.57;;
2434;SDS011;1228;51.022;6.764;2022-08-19T11:02:48;12.30;;;10.48;;
2434;SDS011;1228;51.022;6.764;2022-08-19T11:05:14;12.95;;;9.77;;
2434;SDS011;1228;51.022;6.764;2022-08-19T11:07:40;11.35;;;10.25;;
2434;SDS011;1228;51.022;6.764;2022-08-19T11:10:08;13.30;;;9.88;;
2434;SDS011;1228;51.022;6.764;2022-08-19T11:12:36;10.15;;;9.23;;
2434;SDS011;1228;51.022;6.764;2022-08-19T11:15:04;8.40;;;7.70;;
2434;SDS011;1228;51.022;6.764;2022-08-19T11:17:35;12.45;;;8.95;;
2434;SDS011;1228;51.022;6.764;2022-08-19T11:20:03;9.60;;;8.70;;
2434;SDS011;1228;51.022;6.764;2022-08-19T11:22:30;10.00;;;8.82;;
2434;SDS011;1228;51.022;6.764;2022-08-19T11:24:56;11.35;;;9.52;;
2434;SDS011;1228;51.022;6.764;2022-08-19T11:27:22;11.77;;;9.52;;
2434;SDS011;1228;51.022;6.764;2022-08-19T11:29:47;10.52;;;9.43;;
2434;SDS011;1228;51.022;6.764;2022-08-19T11:32:13;10.48;;;8.98;;
2434;SDS011;1228;51.022;6.764;2022-08-19T11:34:39;9.95;;;8.95;;
2434;SDS011;1228;51.022;6.764;2022-08-19T11:37:05;10.07;;;9.07;;
2434;SDS011;1228;51.022;6.764;2022-08-19T11:39:31;12.25;;;8.25;;
2434;SDS011;1228;51.022;6.764;2022-08-19T11:41:59;11.38;;;8.98;;
2434;SDS011;1228;51.022;6.764;2022-08-19T11:44:26;14.43;;;10.05;;
2434;SDS011;1228;51.022;6.764;2022-08-19T11:46:52;10.27;;;8.45;;
2434;SDS011;1228;51.022;6.764;2022-08-19T11:49:18;12.80;;;9.27;;
2434;SDS011;1228;51.022;6.764;2022-08-19T11:51:46;10.55;;;9.45;;
2434;SDS011;1228;51.022;6.764;2022-08-19T11:54:13;10.70;;;9.63;;
2434;SDS011;1228;51.022;6.764;2022-08-19T11:56:41;10.88;;;9.57;;
2434;SDS011;1228;51.022;6.764;2022-08-19T11:59:07;11.95;;;10.70;;
2434;SDS011;1228;51.022;6.764;2022-08-19T12:01:33;10.02;;;8.93;;
2434;SDS011;1228;51.022;6.764;2022-08-19T12:03:59;11.20;;;10.07;;
2434;SDS011;1228;51.022;6.764;2022-08-19T12:06:28;10.68;;;9.57;;
2434;SDS011;1228;51.022;6.764;2022-08-19T12:08:57;14.05;;;12.07;;
2434;SDS011;1228;51.022;6.764;2022-08-19T12:11:24;11.32;;;10.32;;
2434;SDS011;1228;51.022;6.764;2022-08-19T12:13:50;13.10;;;9.38;;
2434;SDS011;1228;51.022;6.764;2022-08-19T12:16:18;10.77;;;9.77;;
2434;SDS011;1228;51.022;6.764;2022-08-19T12:18:45;11.23;;;9.73;;
2434;SDS011;1228;51.022;6.764;2022-08-19T12:21:12;11.70;;;9.50;;
2434;SDS011;1228;51.022;6.764;2022-08-19T12:23:39;10.30;;;9.40;;
2434;SDS011;1228;51.022;6.764;2022-08-19T12:26:06;10.18;;;9.13;;
2434;SDS011;1228;51.022;6.764;2022-08-19T12:28:33;10.10;;;9.18;;
2434;SDS011;1228;51.022;6.764;2022-08-19T12:30:59;8.45;;;7.65;;
2434;SDS011;1228;51.022;6.764;2022-08-19T12:33:25;9.50;;;8.50;;
2434;SDS011;1228;51.022;6.764;2022-08-19T12:35:52;9.68;;;8.68;;
2434;SDS011;1228;51.022;6.764;2022-08-19T12:38:19;8.55;;;7.65;;
2434;SDS011;1228;51.022;6.764;2022-08-19T12:40:45;9.57;;;8.63;;
2434;SDS011;1228;51.022;6.764;2022-08-19T12:43:12;11.40;;;8.18;;
2434;SDS011;1228;51.022;6.764;2022-08-19T12:45:38;8.90;;;8.00;;
2434;SDS011;1228;51.022;6.764;2022-08-19T12:48:04;9.73;;;8.55;;
2434;SDS011;1228;51.022;6.764;2022-08-19T12:50:30;11.20;;;8.55;;
2434;SDS011;1228;51.022;6.764;2022-08-19T12:52:56;11.30;;;8.40;;
2434;SDS011;1228;51.022;6.764;2022-08-19T12:55:22;11.13;;;8.93;;
2434;SDS011;1228;51.022;6.764;2022-08-19T12:57:49;8.40;;;7.40;;
2434;SDS011;1228;51.022;6.764;2022-08-19T13:00:16;7.78;;;6.97;;
2434;SDS011;1228;51.022;6.764;2022-08-19T13:02:46;7.03;;;6.40;;
2434;SDS011;1228;51.022;6.764;2022-08-19T13:05:19;8.68;;;7.55;;
2434;SDS011;1228;51.022;6.764;2022-08-19T13:07:51;9.50;;;7.05;;
2434;SDS011;1228;51.022;6.764;2022-08-19T13:10:21;7.82;;;7.13;;
2434;SDS011;1228;51.022;6.764;2022-08-19T13:12:49;7.18;;;6.43;;
2434;SDS011;1228;51.022;6.764;2022-08-19T13:15:17;7.18;;;6.45;;
2434;SDS011;1228;51.022;6.764;2022-08-19T13:17:50;7.07;;;5.85;;
2434;SDS011;1228;51.022;6.764;2022-08-19T13:20:18;8.32;;;7.50;;
2434;SDS011;1228;51.022;6.764;2022-08-19T13:22:45;6.18;;;5.57;;
2434;SDS011;1228;51.022;6.764;2022-08-19T13:25:11;7.68;;;6.07;;
2434;SDS011;1228;51.022;6.764;2022-08-19T13:27:38;9.48;;;7.88;;
2434;SDS011;1228;51.022;6.764;2022-08-19T13:30:05;12.52;;;7.75;;
2434;SDS011;1228;51.022;6.764;2022-08-19T13:32:51;7.15;;;6.55;;
2434;SDS011;1228;51.022;6.764;2022-08-19T13:35:35;7.85;;;7.15;;
2434;SDS011;1228;51.022;6.764;2022-08-19T13:38:01;9.15;;;8.27;;
2434;SDS011;1228;51.022;6.764;2022-08-19T13:40:29;9.68;;;8.88;;
2434;SDS011;1228;51.022;6.764;2022-08-19T13:42:58;8.90;;;7.53;;
2434;SDS011;1228;51.022;6.764;2022-08-19T13:45:26;6.55;;;5.90;;
2434;SDS011;1228;51.022;6.764;2022-08-19T13:47:53;5.93;;;5.43;;
2434;SDS011;1228;51.022;6.764;2022-08-19T13:50:25;6.63;;;6.05;;
2434;SDS011;1228;51.022;6.764;2022-08-19T13:52:52;6.88;;;6.28;;
2434;SDS011;1228;51.022;6.764;2022-08-19T13:55:19;7.78;;;6.30;;
2434;SDS011;1228;51.022;6.764;2022-08-19T13:57:45;8.85;;;6.03;;
2434;SDS011;1228;51.022;6.764;2022-08-19T14:00:12;7.95;;;6.20;;
2434;SDS011;1228;51.022;6.764;2022-08-19T14:02:42;5.88;;;5.15;;
2434;SDS011;1228;51.022;6.764;2022-08-19T14:05:10;6.38;;;5.78;;
2434;SDS011;1228;51.022;6.764;2022-08-19T14:07:37;6.63;;;6.13;;
2434;SDS011;1228;51.022;6.764;2022-08-19T14:10:04;6.18;;;5.57;;
2434;SDS011;1228;51.022;6.764;2022-08-19T14:12:31;5.75;;;5.05;;
2434;SDS011;1228;51.022;6.764;2022-08-19T14:14:58;5.68;;;5.25;;
2434;SDS011;1228;51.022;6.764;2022-08-19T14:17:24;5.60;;;4.85;;
2434;SDS011;1228;51.022;6.764;2022-08-19T14:19:50;7.22;;;6.53;;
2434;SDS011;1228;51.022;6.764;2022-08-19T14:22:21;6.05;;;5.50;;
2434;SDS011;1228;51.022;6.764;2022-08-19T14:24:47;6.25;;;5.80;;
2434;SDS011;1228;51.022;6.764;2022-08-19T14:27:13;5.68;;;5.18;;
2434;SDS011;1228;51.022;6.764;2022-08-19T14:29:39;5.30;;;4.82;;
2434;SDS011;1228;51.022;6.764;2022-08-19T14:32:05;6.03;;;5.00;;
2434;SDS011;1228;51.022;6.764;2022-08-19T14:34:30;7.72;;;6.07;;
2434;SDS011;1228;51.022;6.764;2022-08-19T14:36:57;5.10;;;4.70;;
2434;SDS011;1228;51.022;6.764;2022-08-19T14:39:23;6.05;;;4.53;;
2434;SDS011;1228;51.022;6.764;2022-08-19T14:41:48;6.15;;;4.88;;
2434;SDS011;1228;51.022;6.764;2022-08-19T14:44:14;4.47;;;4.15;;
2434;SDS011;1228;51.022;6.764;2022-08-19T14:46:39;9.05;;;4.88;;
2434;SDS011;1228;51.022;6.764;2022-08-19T14:49:05;4.70;;;4.30;;
2434;SDS011;1228;51.022;6.764;2022-08-19T14:51:32;5.38;;;4.93;;
2434;SDS011;1228;51.022;6.764;2022-08-19T14:53:58;5.32;;;3.92;;
2434;SDS011;1228;51.022;6.764;2022-08-19T14:56:24;3.80;;;3.50;;
2434;SDS011;1228;51.022;6.764;2022-08-19T14:58:52;4.68;;;4.30;;
2434;SDS011;1228;51.022;6.764;2022-08-19T15:01:19;4.45;;;4.05;;
2434;SDS011;1228;51.022;6.764;2022-08-19T15:03:46;6.18;;;5.78;;
2434;SDS011;1228;51.022;6.764;2022-08-19T15:06:12;4.63;;;4.13;;
2434;SDS011;1228;51.022;6.764;2022-08-19T15:08:39;13.10;;;4.45;;
2434;SDS011;1228;51.022;6.764;2022-08-19T15:11:10;7.05;;;6.55;;
2434;SDS011;1228;51.022;6.764;2022-08-19T15:13:39;6.88;;;6.00;;
2434;SDS011;1228;51.022;6.764;2022-08-19T15:16:06;5.97;;;4.25;;